Time;durP1;ratioP1;P1;durP2;ratioP2;P2;SDS_P1;SDS_P2;PMS_P1;PMS_P2;Temp;Humidity;BMP_temperature;BMP_pressure;BME280_temperature;BME280_humidity;BME280_pressure;Samples;Min_cycle;Max_cycle;Signal;HPM_P1;HPM_P2
2022/05/03 00:00:01;;;;;;;30.63;18.90;;;15.90;99.90;;;16.29;nan;100463.44;5010128;28;20718;-68
2022/05/03 00:02:43;;;;;;;27.73;17.93;;;15.80;99.90;;;16.32;nan;100457.84;5003870;28;20682;-68
2022/05/03 00:05:24;;;;;;;31.90;19.47;;;15.80;99.90;;;16.28;nan;100456.47;5011499;28;20629;-67
2022/05/03 00:08:39;;;;;;;29.93;20.00;;;15.70;99.90;;;16.36;nan;100453.91;5012155;28;21185;-67
2022/05/03 00:11:40;;;;;;;26.90;18.73;;;15.80;99.90;;;16.25;nan;100451.50;4993569;28;20614;-67
2022/05/03 00:14:36;;;;;;;24.33;17.03;;;15.70;99.90;;;16.28;nan;100451.22;5001291;28;20633;-67
2022/05/03 00:17:04;;;;;;;26.67;17.27;;;15.70;99.90;;;16.22;nan;100451.81;5007194;28;20640;-66
2022/05/03 00:19:33;;;;;;;22.63;15.60;;;15.70;99.90;;;16.14;nan;100454.41;5012634;28;20621;-65
2022/05/03 00:22:01;;;;;;;18.53;13.63;;;15.60;99.90;;;16.09;nan;100457.47;5009506;28;20810;-68
2022/05/03 00:24:30;;;;;;;21.73;13.87;;;15.60;99.90;;;16.08;nan;100453.16;4993851;28;20692;-69
2022/05/03 00:26:57;;;;;;;15.80;11.83;;;15.60;99.90;;;16.18;nan;100447.84;4993299;28;20625;-67
2022/05/03 00:29:26;;;;;;;14.30;10.60;;;15.70;99.90;;;16.17;nan;100451.44;4999692;28;21213;-68
2022/05/03 00:31:53;;;;;;;14.33;10.33;;;15.60;99.90;;;16.14;nan;100446.50;5002693;28;20641;-67
2022/05/03 00:34:22;;;;;;;13.47;9.67;;;15.60;99.90;;;16.13;nan;100448.28;5012095;28;20637;-68
2022/05/03 00:36:49;;;;;;;10.73;8.90;;;15.60;99.90;;;16.14;nan;100434.13;5010692;28;20629;-67
2022/05/03 00:39:16;;;;;;;13.57;9.40;;;15.60;99.90;;;16.18;nan;100437.31;5005385;28;21003;-65
2022/05/03 00:42:03;;;;;;;14.30;8.50;;;15.70;99.90;;;16.12;nan;100437.94;5011099;28;20665;-67
2022/05/03 00:45:00;;;;;;;12.07;8.70;;;15.60;99.90;;;15.76;nan;100455.44;5001884;28;20635;-67
2022/05/03 00:47:53;;;;;;;14.00;10.10;;;15.20;99.90;;;15.76;nan;100444.13;4992718;28;20624;-67
2022/05/03 00:50:43;;;;;;;12.27;9.03;;;15.20;99.90;;;15.74;nan;100438.19;5022976;28;21243;-67
2022/05/03 00:53:32;;;;;;;12.83;9.53;;;15.20;99.90;;;15.77;nan;100440.50;4998905;28;20665;-67
2022/05/03 00:56:30;;;;;;;12.10;8.30;;;15.20;99.90;;;15.79;nan;100428.03;4992613;28;20622;-68
2022/05/03 00:59:16;;;;;;;11.20;8.60;;;15.30;99.90;;;15.71;nan;100433.22;5022914;28;20653;-66
2022/05/03 01:02:06;;;;;;;10.17;7.97;;;15.10;99.90;;;15.75;nan;100439.81;4990961;28;20665;-65
2022/05/03 01:05:09;;;;;;;11.40;9.00;;;15.20;99.90;;;15.71;nan;100441.09;5005351;28;20642;-66
2022/05/03 01:07:48;;;;;;;10.93;8.83;;;15.10;99.90;;;15.72;nan;100442.75;5011011;28;21270;-67
2022/05/03 01:10:47;;;;;;;11.00;8.07;;;15.20;99.90;;;15.75;nan;100434.56;5010490;28;20621;-68
2022/05/03 01:13:25;;;;;;;12.00;8.10;;;15.20;99.90;;;15.79;nan;100434.13;5008040;28;20664;-67
2022/05/03 01:16:02;;;;;;;11.03;7.70;;;15.20;99.90;;;15.81;nan;100428.72;4994845;28;21213;-68
2022/05/03 01:18:52;;;;;;;12.40;8.10;;;15.30;99.90;;;15.82;nan;100433.00;4992025;28;21003;-67
2022/05/03 01:21:45;;;;;;;11.63;8.30;;;15.30;99.90;;;15.82;nan;100425.13;5017192;28;20674;-66
2022/05/03 01:24:32;;;;;;;8.53;7.57;;;15.30;99.90;;;15.83;nan;100429.38;5007606;28;20637;-68
2022/05/03 01:27:20;;;;;;;10.40;8.43;;;15.30;99.90;;;15.85;nan;100432.69;4991775;28;20630;-69
2022/05/03 01:29:50;;;;;;;11.10;8.30;;;15.30;99.90;;;15.85;nan;100437.94;4995164;28;20634;-68
2022/05/03 01:32:21;;;;;;;10.97;8.30;;;15.30;99.90;;;15.77;nan;100432.63;5024724;23;20652;-63
2022/05/03 01:34:52;;;;;;;8.10;7.10;;;15.30;99.90;;;15.77;nan;100435.25;4971233;28;20646;-63
2022/05/03 01:37:48;;;;;;;9.87;7.50;;;15.20;99.90;;;15.75;nan;100434.56;4970529;28;20643;-62
2022/05/03 01:41:07;;;;;;;9.47;7.07;;;15.20;99.90;;;15.73;nan;100433.88;4969516;28;20646;-63
2022/05/03 01:43:46;;;;;;;10.03;7.87;;;15.20;99.90;;;15.74;nan;100432.94;4943337;28;20651;-63
2022/05/03 01:46:22;;;;;;;12.70;9.17;;;15.20;99.90;;;15.68;nan;100431.69;4969826;28;20638;-63
2022/05/03 01:52:54;;;;;;;8.13;7.20;;;15.10;99.90;;;15.66;nan;100427.56;4970224;28;20684;-64
2022/05/03 01:56:14;;;;;;;10.40;7.97;;;15.20;99.90;;;15.63;nan;100423.41;4969740;28;20634;-63
2022/05/03 01:59:33;;;;;;;11.33;8.17;;;15.10;99.90;;;15.64;nan;100421.63;4929648;29;20642;-64
2022/05/03 02:02:22;;;;;;;9.60;7.90;;;15.10;99.90;;;15.58;nan;100428.31;4930777;29;21100;-63
2022/05/03 02:05:06;;;;;;;11.00;8.43;;;15.10;99.90;;;15.59;nan;100432.56;4970289;28;20624;-63
2022/05/03 02:07:56;;;;;;;9.83;7.70;;;15.10;99.90;;;15.54;nan;100430.38;4970852;28;20647;-63
2022/05/03 02:10:58;;;;;;;9.80;7.60;;;15.00;99.90;;;15.51;nan;100420.16;4970874;28;21004;-63
2022/05/03 02:17:01;;;;;;;13.43;8.37;;;14.90;99.90;;;15.40;nan;100422.97;4970260;28;20658;-63
2022/05/03 02:20:11;;;;;;;11.53;8.83;;;14.90;99.90;;;15.34;nan;100425.34;4971208;28;20712;-63
2022/05/03 02:23:10;;;;;;;9.90;7.37;;;14.80;99.90;;;15.26;nan;100425.25;4970623;28;20682;-63
2022/05/03 02:26:05;;;;;;;10.40;7.93;;;14.70;99.90;;;15.18;nan;100428.56;4985576;28;20627;-64
2022/05/03 02:28:46;;;;;;;11.10;9.10;;;14.70;99.90;;;15.15;nan;100425.41;4972666;28;20686;-63
2022/05/03 02:31:18;;;;;;;12.03;8.77;;;14.60;99.90;;;15.13;nan;100425.56;4989131;28;20642;-64
2022/05/03 02:34:14;;;;;;;10.83;8.97;;;14.60;99.90;;;15.03;nan;100426.59;4979264;28;20673;-64
2022/05/03 02:37:23;;;;;;;12.63;9.27;;;14.50;99.90;;;14.99;nan;100427.84;4986044;28;20682;-63
2022/05/03 02:40:08;;;;;;;10.33;8.33;;;14.50;99.90;;;14.90;nan;100429.53;4962928;28;20631;-64
2022/05/03 02:42:36;;;;;;;12.60;8.93;;;14.40;99.90;;;14.88;nan;100430.63;4970650;28;20675;-63
2022/05/03 02:45:05;;;;;;;12.53;9.00;;;14.40;99.90;;;14.81;nan;100430.38;4970226;28;21180;-63
2022/05/03 02:47:42;;;;;;;12.07;9.10;;;14.30;99.90;;;14.80;nan;100426.06;4986092;28;20618;-63
2022/05/03 02:50:14;;;;;;;10.93;8.40;;;14.30;99.90;;;14.74;nan;100431.91;4971435;28;21159;-63
2022/05/03 02:53:05;;;;;;;11.67;8.53;;;14.30;99.90;;;14.77;nan;100429.00;4970985;28;20669;-63
2022/05/03 02:56:01;;;;;;;10.53;8.67;;;14.30;99.90;;;14.74;nan;100430.09;4969276;28;20635;-63
2022/05/03 02:59:08;;;;;;;12.27;9.73;;;14.20;99.90;;;14.71;nan;100426.94;4985308;28;20631;-63
2022/05/03 03:02:21;;;;;;;11.37;8.50;;;14.20;99.90;;;14.69;nan;100426.25;4970444;28;21214;-63
2022/05/03 03:04:58;;;;;;;12.07;9.37;;;14.20;99.90;;;14.55;nan;100431.94;4963982;28;20636;-63
2022/05/03 03:07:28;;;;;;;11.43;9.50;;;14.10;99.90;;;14.51;nan;100422.69;4979311;28;20653;-63
2022/05/03 03:10:05;;;;;;;11.93;8.57;;;14.10;99.90;;;14.47;nan;100426.56;4978282;28;20619;-63
2022/05/03 03:12:57;;;;;;;15.00;8.73;;;14.00;99.90;;;14.46;nan;100432.78;4972161;28;20655;-64
2022/05/03 03:15:29;;;;;;;11.50;8.37;;;14.00;99.90;;;14.47;nan;100431.81;4971727;28;20627;-64
2022/05/03 03:18:00;;;;;;;13.10;8.93;;;14.00;99.90;;;14.53;nan;100426.84;4970223;28;20630;-64
2022/05/03 03:20:28;;;;;;;11.90;9.27;;;14.10;99.90;;;14.48;nan;100428.22;4986031;28;21001;-64
2022/05/03 03:22:55;;;;;;;10.83;9.40;;;14.00;99.90;;;14.46;nan;100430.16;4990671;28;20681;-64
2022/05/03 03:25:23;;;;;;;12.17;8.80;;;14.00;99.90;;;14.47;nan;100431.81;4990740;28;20622;-64
2022/05/03 03:27:53;;;;;;;12.77;9.27;;;14.00;99.90;;;14.49;nan;100435.13;4992712;28;20610;-64
2022/05/03 03:30:21;;;;;;;11.47;9.03;;;14.00;99.90;;;14.54;nan;100438.16;5005472;28;20680;-64
2022/05/03 03:32:51;;;;;;;13.40;9.70;;;14.10;99.90;;;14.51;nan;100436.66;4992415;28;20658;-64
2022/05/03 03:35:19;;;;;;;11.43;9.03;;;14.10;99.90;;;14.54;nan;100435.53;4986891;28;20622;-64
2022/05/03 03:37:49;;;;;;;13.43;10.20;;;14.10;99.90;;;14.50;nan;100447.28;4978114;28;20631;-64
2022/05/03 03:40:19;;;;;;;13.30;9.17;;;14.00;99.90;;;14.50;nan;100436.78;4982570;28;20645;-63
2022/05/03 03:42:46;;;;;;;13.00;9.20;;;14.00;99.90;;;14.39;nan;100440.41;4977165;28;20678;-64
2022/05/03 03:45:16;;;;;;;12.97;9.00;;;13.90;99.90;;;14.35;nan;100433.75;4978511;28;20661;-63
2022/05/03 03:47:45;;;;;;;12.33;9.30;;;13.90;99.90;;;14.36;nan;100435.41;4998878;28;20985;-63
2022/05/03 03:50:13;;;;;;;13.57;9.10;;;13.90;99.90;;;14.27;nan;100438.81;4989207;28;20626;-64
2022/05/03 03:52:43;;;;;;;13.00;9.60;;;13.80;99.90;;;14.22;nan;100441.06;4972174;28;20678;-64
2022/05/03 03:55:12;;;;;;;14.10;9.50;;;13.80;99.90;;;14.28;nan;100448.38;4991292;28;20643;-64
2022/05/03 03:57:40;;;;;;;12.47;9.77;;;13.80;99.90;;;14.19;nan;100450.97;4973200;28;20642;-63
2022/05/03 04:00:11;;;;;;;14.80;10.10;;;13.80;99.90;;;14.19;nan;100453.59;4972805;28;20678;-64
2022/05/03 04:02:41;;;;;;;11.60;9.50;;;13.70;99.90;;;14.26;nan;100455.56;4974004;28;20667;-63
2022/05/03 04:05:23;;;;;;;12.30;8.37;;;13.70;99.90;;;14.23;nan;100447.94;4995477;28;20630;-63
2022/05/03 04:07:51;;;;;;;11.20;7.73;;;13.80;99.90;;;14.22;nan;100451.56;4982639;28;20642;-64
2022/05/03 04:10:18;;;;;;;11.03;7.43;;;13.70;99.90;;;14.21;nan;100451.66;4971022;28;20638;-63
2022/05/03 04:12:45;;;;;;;11.87;8.00;;;13.70;99.90;;;14.26;nan;100452.09;4970768;28;20654;-63
2022/05/03 04:15:13;;;;;;;11.13;8.10;;;13.70;99.90;;;14.22;nan;100448.94;4969650;28;20634;-63
2022/05/03 04:17:43;;;;;;;12.23;8.10;;;13.70;99.90;;;14.25;nan;100453.88;5007226;28;20711;-63
2022/05/03 04:20:12;;;;;;;11.60;7.80;;;13.80;99.90;;;14.26;nan;100452.09;4988537;28;20618;-62
2022/05/03 04:22:39;;;;;;;9.90;8.27;;;13.80;99.90;;;14.28;nan;100458.03;4992355;28;21321;-63
2022/05/03 04:25:07;;;;;;;10.27;8.40;;;13.80;99.90;;;14.29;nan;100459.75;4990538;28;20634;-63
2022/05/03 04:27:34;;;;;;;10.10;7.50;;;13.80;99.90;;;14.29;nan;100460.53;4991838;28;20985;-63
2022/05/03 04:30:03;;;;;;;10.23;8.23;;;13.80;99.90;;;14.28;nan;100458.88;4972729;28;20651;-63
2022/05/03 04:32:32;;;;;;;11.37;8.73;;;13.80;99.90;;;14.24;nan;100457.50;4972359;28;20635;-63
2022/05/03 04:34:59;;;;;;;11.53;8.13;;;13.80;99.90;;;14.29;nan;100459.75;4985720;28;20645;-63
2022/05/03 04:37:27;;;;;;;14.17;8.40;;;13.80;99.90;;;14.30;nan;100458.75;4991577;28;21033;-63
2022/05/03 04:39:55;;;;;;;12.67;8.30;;;13.80;99.90;;;14.29;nan;100457.91;4988637;28;20660;-63
2022/05/03 04:42:22;;;;;;;16.07;8.00;;;13.80;99.90;;;14.28;nan;100460.66;4981989;28;20679;-63
2022/05/03 04:44:49;;;;;;;11.50;7.80;;;13.80;99.90;;;14.31;nan;100463.06;4983922;28;20765;-64
2022/05/03 04:47:16;;;;;;;12.93;7.97;;;13.80;99.90;;;14.31;nan;100460.44;4992824;28;21142;-64
2022/05/03 04:49:43;;;;;;;10.60;8.10;;;13.80;99.90;;;14.32;nan;100465.53;4988005;28;20634;-64
2022/05/03 04:52:10;;;;;;;12.57;8.10;;;13.80;99.90;;;14.35;nan;100464.44;4987500;28;20651;-64
2022/05/03 04:54:38;;;;;;;15.70;8.50;;;13.90;99.90;;;14.32;nan;100462.91;4991706;28;20834;-65
2022/05/03 04:57:09;;;;;;;10.37;8.40;;;13.90;99.90;;;14.35;nan;100470.47;4990225;28;20638;-64
2022/05/03 04:59:38;;;;;;;14.13;8.97;;;13.90;99.90;;;14.40;nan;100465.66;4991267;28;20634;-64
2022/05/03 05:02:05;;;;;;;13.87;8.90;;;13.90;99.90;;;14.46;nan;100477.41;4970596;28;20664;-65
2022/05/03 05:04:32;;;;;;;10.40;8.20;;;14.00;99.90;;;14.50;nan;100471.72;4964050;28;20662;-64
2022/05/03 05:06:59;;;;;;;12.83;8.97;;;14.00;99.90;;;14.59;nan;100477.94;4976314;28;20973;-65
2022/05/03 05:09:26;;;;;;;12.50;8.83;;;14.10;99.90;;;14.65;nan;100483.47;4983059;28;20642;-64
2022/05/03 05:11:53;;;;;;;12.90;9.47;;;14.20;99.90;;;14.71;nan;100482.09;4991606;28;20627;-64
2022/05/03 05:14:20;;;;;;;11.53;8.47;;;14.30;99.90;;;14.79;nan;100484.84;4979297;28;20667;-64
2022/05/03 05:16:51;;;;;;;13.10;9.20;;;14.30;99.90;;;14.87;nan;100492.84;4983328;28;20635;-63
2022/05/03 05:19:18;;;;;;;10.60;8.00;;;14.40;99.90;;;14.99;nan;100488.28;4990308;28;21245;-64
2022/05/03 05:21:46;;;;;;;16.20;9.93;;;14.50;99.90;;;15.13;nan;100488.66;4953809;28;20636;-64
2022/05/03 05:24:13;;;;;;;9.50;7.90;;;14.70;99.90;;;15.26;nan;100491.78;4984829;28;20658;-64
2022/05/03 05:26:41;;;;;;;12.20;8.00;;;14.80;99.90;;;15.34;nan;100493.69;4991520;28;20622;-64
2022/05/03 05:29:09;;;;;;;13.07;9.33;;;14.90;99.90;;;15.36;nan;100494.38;4975887;28;20638;-62
2022/05/03 05:31:36;;;;;;;15.77;10.00;;;14.90;99.90;;;15.37;nan;100490.78;4987116;28;20618;-65
2022/05/03 05:34:03;;;;;;;13.93;8.97;;;14.90;99.90;;;15.37;nan;100491.63;4970622;28;20679;-63
2022/05/03 05:36:30;;;;;;;13.13;9.70;;;15.00;99.90;;;15.46;nan;100490.75;4972804;28;20817;-63
2022/05/03 05:38:57;;;;;;;10.43;8.90;;;15.00;99.90;;;15.56;nan;100495.16;4984699;28;20641;-63
2022/05/03 05:41:24;;;;;;;11.80;9.13;;;15.10;99.90;;;15.72;nan;100500.59;4991643;28;20706;-58
2022/05/03 05:43:51;;;;;;;13.80;9.60;;;15.30;99.90;;;15.90;nan;100498.88;4972055;28;21130;-63
2022/05/03 05:46:18;;;;;;;16.50;10.17;;;15.50;99.90;;;16.12;nan;100498.47;4972085;28;20631;-63
2022/05/03 05:48:45;;;;;;;17.70;10.57;;;15.80;99.90;;;16.33;nan;100509.53;4974409;28;20642;-63
2022/05/03 05:51:14;;;;;;;12.70;9.70;;;16.00;99.90;;;16.42;nan;100502.53;4988146;28;20633;-63
2022/05/03 05:53:43;;;;;;;12.17;9.23;;;16.00;99.90;;;16.49;nan;100499.13;4997991;28;20670;-64
2022/05/03 05:56:10;;;;;;;11.60;9.17;;;16.10;99.90;;;16.62;nan;100504.06;4991209;28;21190;-64
2022/05/03 05:58:40;;;;;;;12.80;9.77;;;16.20;99.90;;;16.77;nan;100507.78;4979013;28;20646;-64
2022/05/03 06:01:07;;;;;;;18.10;10.07;;;16.40;99.90;;;16.85;nan;100513.13;4986395;28;20626;-65
2022/05/03 06:03:34;;;;;;;16.17;10.47;;;16.50;99.90;;;16.78;nan;100510.28;4971348;28;20678;-63
2022/05/03 06:06:01;;;;;;;20.30;10.33;;;16.40;99.90;;;16.91;nan;100517.78;4971190;28;20639;-64
2022/05/03 06:08:30;;;;;;;17.07;9.80;;;16.50;99.90;;;16.97;nan;100514.56;4970966;28;20647;-63
2022/05/03 06:10:59;;;;;;;14.10;10.30;;;16.50;99.90;;;17.13;nan;100519.09;4941426;29;20648;-64
2022/05/03 06:13:26;;;;;;;10.60;9.13;;;16.70;99.90;;;18.27;nan;100520.28;4956148;28;20667;-64
2022/05/03 06:15:54;;;;;;;16.90;10.10;;;17.90;99.90;;;19.00;nan;100521.19;4971116;28;20639;-62
2022/05/03 06:18:22;;;;;;;13.50;9.63;;;18.90;99.90;;;19.35;nan;100514.72;4971732;28;21182;-64
2022/05/03 06:20:50;;;;;;;12.57;8.53;;;19.10;99.90;;;20.33;nan;100529.19;4970576;28;20643;-65
2022/05/03 06:23:17;;;;;;;10.83;7.57;;;20.10;99.00;;;20.57;nan;100523.75;4969589;28;20717;-63
2022/05/03 06:25:44;;;;;;;10.90;9.33;;;20.40;97.50;;;20.16;nan;100523.16;4963185;28;20623;-64
2022/05/03 06:28:11;;;;;;;11.20;8.70;;;20.00;97.10;;;19.75;nan;100530.47;4970850;28;20631;-65
2022/05/03 06:30:40;;;;;;;13.87;9.10;;;19.50;97.60;;;19.36;nan;100526.94;4972085;28;20646;-63
2022/05/03 06:33:07;;;;;;;11.67;9.50;;;19.00;98.50;;;19.07;nan;100521.34;4970649;28;21247;-64
2022/05/03 06:35:34;;;;;;;10.80;8.87;;;18.70;99.50;;;18.68;nan;100525.63;4969614;28;21069;-62
2022/05/03 06:38:01;;;;;;;10.00;8.73;;;18.40;99.90;;;18.62;nan;100528.94;4971214;28;20654;-64
2022/05/03 06:40:28;;;;;;;10.90;8.87;;;18.20;99.90;;;18.84;nan;100533.59;4979203;28;20655;-65
2022/05/03 06:42:55;;;;;;;11.70;9.30;;;18.40;99.90;;;19.11;nan;100531.41;4973366;28;20678;-64
2022/05/03 06:45:23;;;;;;;10.43;9.20;;;18.70;99.90;;;21.02;nan;100536.94;4970934;28;20669;-64
2022/05/03 06:47:51;;;;;;;13.23;8.67;;;20.50;98.00;;;23.80;nan;100539.59;4971163;28;20643;-64
2022/05/03 06:50:18;;;;;;;13.40;9.50;;;23.50;92.30;;;25.48;nan;100543.78;4971482;28;21210;-64
2022/05/03 06:52:45;;;;;;;9.47;8.47;;;25.60;79.40;;;25.36;nan;100555.06;4969373;28;20662;-64
2022/05/03 06:55:12;;;;;;;10.80;9.07;;;25.30;74.10;;;25.65;nan;100547.66;4970102;28;20631;-64
2022/05/03 06:57:39;;;;;;;9.60;8.57;;;25.60;71.60;;;26.45;nan;100547.94;4970191;28;20954;-64
2022/05/03 07:00:08;;;;;;;11.63;9.33;;;26.30;69.00;;;26.37;nan;100550.03;4971361;28;20639;-64
2022/05/03 07:02:36;;;;;;;9.30;8.30;;;26.60;65.60;;;25.64;nan;100536.13;4963088;28;21061;-64
2022/05/03 07:05:04;;;;;;;12.47;9.67;;;25.50;67.20;;;24.30;nan;100544.50;4984156;28;20638;-64
2022/05/03 07:07:33;;;;;;;11.00;9.83;;;24.40;68.20;;;22.92;nan;100536.72;4968886;28;20649;-63
2022/05/03 07:10:00;;;;;;;12.13;7.27;;;22.90;72.50;;;-141.50;100.00;62695.63;4969408;28;20642;-64
2022/05/03 07:12:28;;;;;;;13.30;9.77;;;21.80;77.30;;;21.08;nan;100549.53;4970508;28;20714;-64
2022/05/03 07:15:07;;;;;;;13.33;8.53;;;20.90;82.30;;;20.54;nan;100542.63;4980459;28;20649;-63
2022/05/03 07:23:06;;;;;;;14.20;11.03;;;19.20;92.80;;;19.48;nan;100548.59;4973561;28;21026;-64
2022/05/03 07:25:33;;;;;;;13.50;10.50;;;19.10;95.10;;;20.53;nan;100547.09;4963916;28;20639;-64
2022/05/03 07:28:00;;;;;;;10.50;8.93;;;20.10;93.70;;;21.37;nan;100551.41;4970154;28;20639;-64
2022/05/03 07:30:27;;;;;;;11.30;9.50;;;21.10;91.50;;;20.96;nan;100550.91;4971476;28;20627;-64
2022/05/03 07:32:54;;;;;;;9.90;8.67;;;20.70;91.50;;;20.67;nan;100550.81;4988914;23;20682;-67
2022/05/03 07:35:21;;;;;;;11.93;10.43;;;20.30;92.80;;;20.48;nan;100551.28;5028539;28;21233;-67
2022/05/03 07:37:51;;;;;;;22.13;10.40;;;20.10;93.30;;;20.18;nan;100557.41;5029847;28;20609;-67
2022/05/03 07:40:18;;;;;;;15.70;11.00;;;19.80;93.90;;;19.91;nan;100562.16;5028340;28;20636;-68
2022/05/03 07:42:47;;;;;;;11.10;9.80;;;19.50;94.80;;;19.90;nan;100554.38;5028920;28;20714;-66
2022/05/03 07:45:15;;;;;;;12.70;10.27;;;19.50;95.30;;;20.42;nan;100554.66;5027729;28;20998;-66
2022/05/03 07:47:43;;;;;;;12.83;9.90;;;20.00;95.50;;;21.09;nan;100558.28;4999621;28;20633;-66
2022/05/03 07:50:10;;;;;;;14.77;10.33;;;20.80;93.20;;;20.94;nan;100563.53;4991810;28;20622;-66
2022/05/03 07:52:38;;;;;;;11.60;10.03;;;20.80;92.80;;;20.53;nan;100562.22;5025646;28;20644;-66
2022/05/03 07:55:08;;;;;;;13.93;9.87;;;20.20;93.30;;;20.31;nan;100557.69;5023640;28;20632;-66
2022/05/03 07:57:35;;;;;;;13.33;11.43;;;19.90;94.30;;;20.01;nan;100561.97;5029451;28;21275;-66
2022/05/03 08:00:05;;;;;;;12.10;10.60;;;19.70;94.70;;;19.75;nan;100567.53;5029022;28;20636;-67
2022/05/03 08:02:32;;;;;;;10.93;9.60;;;19.40;95.60;;;19.81;nan;100566.00;5027537;28;20628;-66
2022/05/03 08:04:59;;;;;;;11.27;8.13;;;19.40;96.10;;;19.83;nan;100570.13;5020732;28;20723;-68
2022/05/03 08:07:27;;;;;;;13.00;9.40;;;19.40;96.20;;;19.86;nan;100575.09;5026389;28;20628;-67
2022/05/03 08:09:54;;;;;;;14.83;10.60;;;19.40;96.50;;;20.01;nan;100570.75;5020246;28;20637;-67
2022/05/03 08:12:24;;;;;;;13.67;9.97;;;19.70;96.40;;;19.94;nan;100571.56;5032290;28;20622;-66
2022/05/03 08:14:52;;;;;;;13.83;11.47;;;19.60;96.50;;;19.93;nan;100570.75;5004752;28;20664;-67
2022/05/03 08:17:19;;;;;;;18.87;11.13;;;19.60;96.60;;;20.22;nan;100572.81;5012877;28;20647;-67
2022/05/03 08:19:46;;;;;;;11.87;9.80;;;19.90;96.30;;;20.57;nan;100576.75;5030749;28;20640;-67
2022/05/03 08:22:14;;;;;;;10.27;8.47;;;20.20;95.80;;;21.00;nan;100583.25;5030754;28;20645;-67
2022/05/03 08:24:41;;;;;;;12.33;10.47;;;20.70;95.20;;;21.16;nan;100580.47;5031472;28;20678;-63
2022/05/03 08:27:09;;;;;;;12.83;10.50;;;20.90;94.70;;;21.19;nan;100577.47;5031079;28;20632;-67
2022/05/03 08:29:36;;;;;;;14.57;11.37;;;20.90;94.20;;;21.09;nan;100579.53;5029287;28;20636;-68
2022/05/03 08:32:04;;;;;;;12.57;10.70;;;20.90;93.60;;;21.41;nan;100584.53;5011997;28;20988;-67
2022/05/03 08:34:31;;;;;;;11.50;10.27;;;21.10;94.00;;;21.50;nan;100592.25;5016575;28;20675;-67
2022/05/03 08:42:30;;;;;;;14.23;10.47;;;22.30;91.30;;;23.11;nan;100591.94;5033347;28;20651;-66
2022/05/03 08:44:57;;;;;;;12.17;10.83;;;22.90;90.20;;;23.50;nan;100594.94;5031593;28;20683;-66
2022/05/03 08:47:27;;;;;;;12.20;10.07;;;23.30;87.90;;;23.70;nan;100597.75;5028849;28;20644;-66
2022/05/03 08:50:12;;;;;;;14.00;11.17;;;23.60;85.50;;;23.92;nan;100588.63;5023291;28;20625;-66
2022/05/03 08:52:47;;;;;;;12.30;9.27;;;23.70;84.90;;;24.50;nan;100596.06;5028133;28;21054;-66
2022/05/03 08:55:16;;;;;;;13.80;10.60;;;24.30;82.20;;;25.14;nan;100601.75;5015471;28;20629;-66
2022/05/03 08:57:44;;;;;;;14.57;10.03;;;25.00;78.00;;;25.66;nan;100600.88;5012626;28;20613;-66
2022/05/03 09:00:14;;;;;;;11.37;10.17;;;25.50;76.50;;;26.33;nan;100600.50;5032413;28;20983;-66
2022/05/03 09:02:48;;;;;;;11.40;9.30;;;26.40;73.50;;;26.92;nan;100597.47;5030622;28;21029;-64
2022/05/03 09:05:16;;;;;;;11.30;10.10;;;26.70;70.80;;;27.93;nan;100603.38;5015574;28;21197;-66
2022/05/03 09:07:56;;;;;;;12.87;11.33;;;27.80;67.10;;;29.08;nan;100595.84;5026378;28;20640;-67
2022/05/03 09:10:34;;;;;;;11.67;9.03;;;29.50;62.00;;;29.61;nan;100611.06;5023212;28;20643;-67
2022/05/03 09:13:23;;;;;;;11.20;10.10;;;29.80;60.20;;;28.68;nan;100597.50;5026828;28;21063;-67
2022/05/03 09:15:56;;;;;;;11.77;9.90;;;28.80;60.30;;;28.00;nan;100602.31;5030501;28;20633;-65
2022/05/03 09:18:29;;;;;;;13.07;10.60;;;27.90;61.20;;;27.52;nan;100594.09;5031228;28;20674;-65
2022/05/03 09:23:50;;;;;;;11.60;10.30;;;27.30;62.80;;;27.53;nan;100597.63;5020182;28;21231;-68
2022/05/03 09:26:23;;;;;;;11.30;10.07;;;27.70;60.70;;;27.28;nan;100604.84;5027359;28;20823;-66
2022/05/03 09:28:52;;;;;;;14.03;10.40;;;27.20;61.90;;;28.50;nan;100599.38;5029028;28;21190;-67
2022/05/03 09:31:47;;;;;;;11.87;10.67;;;28.30;60.80;;;32.65;nan;100611.34;5031131;28;20655;-67
2022/05/03 09:34:25;;;;;;;8.83;8.10;;;32.80;54.60;;;35.90;nan;100609.28;5029873;28;20660;-67
2022/05/03 09:37:05;;;;;;;12.20;9.70;;;36.50;47.80;;;;;;5030933;28;20617;-67
2022/05/03 09:39:43;;;;;;;9.90;9.00;;;37.60;44.10;;;;;;5011841;28;20643;-67
2022/05/03 09:42:15;;;;;;;10.27;9.37;;;38.60;42.80;;;;;;5029752;28;20636;-67
2022/05/03 09:45:02;;;;;;;9.90;9.00;;;39.40;41.10;;;;;;5029284;28;20676;-66
2022/05/03 09:47:34;;;;;;;9.70;8.80;;;40.70;39.70;;;;;;5029898;28;20674;-68
2022/05/03 09:50:02;;;;;;;10.40;9.10;;;40.80;38.70;;;;;;5029937;28;20996;-66
2022/05/03 09:52:36;;;;;;;8.10;7.40;;;40.70;38.60;;;;;;5030712;28;20747;-69
2022/05/03 09:55:06;;;;;;;10.50;9.70;;;41.30;37.80;;;;;;5030411;28;20659;-67
2022/05/03 09:57:40;;;;;;;9.53;8.80;;;42.50;36.90;;;;;;5030941;28;20617;-68
2022/05/03 10:00:10;;;;;;;9.57;7.20;;;41.20;36.80;;;;;;5029218;28;20634;-68
2022/05/03 10:02:40;;;;;;;9.63;8.73;;;41.60;37.60;;;;;;5029723;28;20615;-67
2022/05/03 10:05:12;;;;;;;8.13;7.57;;;40.80;37.40;;;;;;5016495;28;20663;-68
2022/05/03 10:07:44;;;;;;;9.10;8.40;;;40.70;37.20;;;;;;5015894;28;20724;-67
2022/05/03 10:10:12;;;;;;;8.13;7.50;;;41.30;37.00;;;;;;5017194;28;21206;-67
2022/05/03 10:12:42;;;;;;;8.17;7.50;;;41.00;36.80;;;;;;5021783;28;20618;-67
2022/05/03 10:15:10;;;;;;;8.50;7.70;;;41.70;36.50;;;;;;5020710;28;20632;-67
2022/05/03 10:20:45;;;;;;;8.50;7.80;;;40.20;36.70;;;;;;5015944;28;21226;-66
2022/05/03 10:23:28;;;;;;;7.10;6.60;;;38.40;38.10;;;;;;5019593;28;20669;-67
2022/05/03 10:25:56;;;;;;;12.37;7.57;;;37.00;39.00;;;;;;5020140;28;21047;-67
2022/05/03 10:28:24;;;;;;;6.40;5.83;;;35.20;40.00;;;;;;5029692;28;21190;-65
2022/05/03 10:31:06;;;;;;;6.50;5.97;;;33.70;40.70;;;;;;5012821;28;20633;-65
2022/05/03 10:33:35;;;;;;;6.70;6.00;;;32.00;42.20;;;;;;5013514;28;20675;-67
2022/05/03 10:36:23;;;;;;;8.77;7.87;;;31.10;44.50;;;;;;5022098;28;20628;-67
2022/05/03 10:38:50;;;;;;;6.53;5.93;;;29.50;45.10;;;;;;5019347;28;20720;-67
2022/05/03 10:41:26;;;;;;;7.30;6.70;;;28.50;46.60;;;;;;5024977;28;20632;-68
2022/05/03 10:43:53;;;;;;;9.37;7.50;;;27.60;48.10;;;;;;5029993;28;20676;-67
2022/05/03 10:46:22;;;;;;;9.17;8.27;;;26.90;49.30;;;;;;5031132;28;20639;-67
2022/05/03 10:49:15;;;;;;;9.93;7.50;;;26.50;50.50;;;;;;5030887;28;20631;-67
2022/05/03 10:51:42;;;;;;;9.10;7.10;;;26.00;51.10;;;;;;5029996;28;20635;-67
2022/05/03 10:54:09;;;;;;;8.13;6.43;;;25.40;52.00;;;;;;5030788;28;20651;-67
2022/05/03 10:57:08;;;;;;;6.30;5.80;;;25.00;52.50;;;;;;5013207;28;20636;-68
2022/05/03 10:59:48;;;;;;;6.67;6.07;;;24.80;54.00;;;;;;5010745;28;20632;-66
2022/05/03 11:02:16;;;;;;;7.40;6.70;;;24.70;53.80;;;;;;5018640;28;20655;-64
2022/05/03 11:05:16;;;;;;;8.73;6.90;;;24.40;54.00;;;;;;5010255;28;20681;-67
2022/05/03 11:08:15;;;;;;;5.60;4.60;;;23.80;53.90;;;;;;5023010;28;21294;-69
2022/05/03 11:10:43;;;;;;;7.50;6.10;;;23.50;55.00;;;;;;5029926;28;20993;-68
2022/05/03 11:13:39;;;;;;;6.70;6.10;;;23.20;55.40;;;;;;5030983;28;20695;-68
2022/05/03 11:16:26;;;;;;;5.83;5.03;;;23.00;55.60;;;;;;5031013;28;20616;-67
2022/05/03 11:18:54;;;;;;;6.40;5.80;;;22.70;56.80;;;;;;5030848;28;20617;-68
2022/05/03 11:21:21;;;;;;;8.83;6.70;;;22.50;57.80;;;;;;5030663;28;20652;-68
2022/05/03 11:23:53;;;;;;;6.70;6.10;;;22.40;57.80;;;;;;5030220;28;20665;-68
2022/05/03 11:26:21;;;;;;;7.70;6.50;;;22.40;59.90;;;;;;5031463;28;20619;-68
2022/05/03 11:28:50;;;;;;;7.17;6.47;;;22.30;60.20;;;;;;5030946;28;20711;-67
2022/05/03 11:31:20;;;;;;;11.60;5.10;;;22.20;59.90;;;;;;5031321;28;20627;-68
2022/05/03 11:33:55;;;;;;;8.80;7.73;;;22.30;60.40;;;;;;5030213;28;20688;-68